Terminal Aerodrome Forecast
Issued by NWS

Home | Current Version | Previous Version | Text Only | Print | Product List | Glossary On
Versions: 1 2 3 4 5 6 7 8 9 10 11 12 13 14 15 16 17 18 19 20 21 22 23 24 25
000
FTUS43 KBIS 280500
TAFJMS
TAF
KJMS 280528Z 2806/2906 33006KT P6SM BKN050
     FM280800 33004KT P6SM SCT020 SCT050
     FM281500 35008KT P6SM SCT035 SCT050
     FM290200 04003KT P6SM SKC=

USA.gov is the U.S. government's official web portal to all federal, state and local government web resources and services.